Time;durP1;ratioP1;P1;durP2;ratioP2;P2;SDS_P1;SDS_P2;PMS_P1;PMS_P2;Temp;Humidity;BMP_temperature;BMP_pressure;BME280_temperature;BME280_humidity;BME280_pressure;Samples;Min_cycle;Max_cycle;Signal;HPM_P1;HPM_P2
2022/09/11 00:01:39;;;;;;;;;;;;;;;21.09;100.00;100654.59;5013412;28;19921;-80
2022/09/11 00:04:14;;;;;;;;;;;;;;;20.89;100.00;100654.69;5014571;28;19973;-84
2022/09/11 00:06:43;;;;;;;;;;;;;;;21.03;100.00;100653.81;5014191;28;20309;-84
2022/09/11 00:09:12;;;;;;;;;;;;;;;21.12;100.00;100650.50;4997804;28;20398;-80
2022/09/11 00:11:44;;;;;;;;;;;;;;;21.16;100.00;100654.28;5014717;28;20506;-85
2022/09/11 00:14:13;;;;;;;;;;;;;;;21.09;100.00;100648.38;5014424;28;19925;-81
2022/09/11 00:16:43;;;;;;;;;;;;;;;21.17;100.00;100647.81;5014150;28;19925;-83
2022/09/11 00:19:15;;;;;;;;;;;;;;;21.32;100.00;100639.63;5014314;28;19926;-80
2022/09/11 00:21:46;;;;;;;;;;;;;;;21.27;100.00;100647.72;5014687;28;19994;-84
2022/09/11 00:24:13;;;;;;;;;;;;;;;21.63;100.00;100642.94;5010887;28;19929;-79
2022/09/11 00:26:41;;;;;;;;;;;;;;;21.25;100.00;100645.31;5014009;28;20352;-78
2022/09/11 00:29:07;;;;;;;;;;;;;;;21.75;100.00;100641.78;5010568;28;19928;-79
2022/09/11 00:31:38;;;;;;;;;;;;;;;21.52;100.00;100635.22;5014314;28;19961;-79
2022/09/11 00:34:05;;;;;;;;;;;;;;;21.31;100.00;100640.72;5014098;28;19932;-79
2022/09/11 00:36:43;;;;;;;;;;;;;;;21.20;100.00;100639.16;5014055;28;19925;-84
2022/09/11 00:39:13;;;;;;;;;;;;;;;21.46;100.00;100634.44;5011091;28;19936;-83
2022/09/11 00:41:41;;;;;;;;;;;;;;;20.98;100.00;100639.53;5013315;28;19925;-77
2022/09/11 00:44:29;;;;;;;;;;;;;;;21.48;100.00;100645.75;5009625;28;20270;-82
2022/09/11 00:47:08;;;;;;;;;;;;;;;21.29;100.00;100642.88;5009836;28;20263;-83
2022/09/11 00:49:38;;;;;;;;;;;;;;;21.17;100.00;100654.00;5009267;28;20386;-80
2022/09/11 00:52:13;;;;;;;;;;;;;;;21.16;100.00;100657.00;5013637;28;19921;-83
2022/09/11 00:54:42;;;;;;;;;;;;;;;21.24;100.00;100659.09;5013753;28;19936;-82
2022/09/11 00:57:11;;;;;;;;;;;;;;;20.96;100.00;100644.38;5013241;28;20008;-84
2022/09/11 00:59:40;;;;;;;;;;;;;;;21.03;100.00;100642.22;5013537;28;19921;-78
2022/09/11 01:02:12;;;;;;;;;;;;;;;20.95;100.00;100645.47;5012656;28;19921;-79
2022/09/11 01:04:40;;;;;;;;;;;;;;;21.10;100.00;100644.59;5013304;28;19928;-78
2022/09/11 01:07:07;;;;;;;;;;;;;;;20.79;100.00;100642.03;5004376;28;20401;-82
2022/09/11 01:09:36;;;;;;;;;;;;;;;20.97;100.00;100649.53;5014469;28;20366;-79
2022/09/11 01:12:05;;;;;;;;;;;;;;;20.92;100.00;100644.13;5015343;28;20025;-79
2022/09/11 01:14:38;;;;;;;;;;;;;;;20.87;100.00;100641.44;5017807;28;19964;-79
2022/09/11 01:17:14;;;;;;;;;;;;;;;20.88;100.00;100648.50;5017453;28;19921;-79
2022/09/11 01:19:53;;;;;;;;;;;;;;;20.80;100.00;100651.75;5017728;28;19979;-84
2022/09/11 01:22:38;;;;;;;;;;;;;;;21.02;100.00;100644.09;5017675;28;19951;-78
2022/09/11 01:25:14;;;;;;;;;;;;;;;20.72;100.00;100636.13;5009219;28;19925;-79
2022/09/11 01:27:49;;;;;;;;;;;;;;;20.72;100.00;100644.22;5004986;28;20004;-83
2022/09/11 01:30:18;;;;;;;;;;;;;;;21.11;100.00;100643.50;5014091;28;19922;-79
2022/09/11 01:32:58;;;;;;;;;;;;;;;20.80;100.00;100640.94;5016784;28;19921;-79
2022/09/11 01:35:27;;;;;;;;;;;;;;;20.85;100.00;100643.63;5017375;28;19971;-78
2022/09/11 01:37:56;;;;;;;;;;;;;;;20.72;100.00;100645.00;5017716;28;19925;-78
2022/09/11 01:40:28;;;;;;;;;;;;;;;20.69;100.00;100640.16;5017367;28;19921;-83
2022/09/11 01:43:05;;;;;;;;;;;;;;;20.75;100.00;100641.75;5017149;28;19987;-79
2022/09/11 01:45:36;;;;;;;;;;;;;;;20.57;100.00;100640.50;5017111;28;19921;-83
2022/09/11 01:48:07;;;;;;;;;;;;;;;20.67;100.00;100653.16;5017210;28;19932;-79
2022/09/11 01:50:43;;;;;;;;;;;;;;;20.61;100.00;100654.25;5005297;28;20001;-84
2022/09/11 01:53:14;;;;;;;;;;;;;;;20.50;100.00;100645.31;5016096;28;19936;-83
2022/09/11 01:55:44;;;;;;;;;;;;;;;20.33;100.00;100650.22;5017055;28;19927;-83
2022/09/11 01:58:16;;;;;;;;;;;;;;;20.36;100.00;100653.19;5016361;28;19921;-78
2022/09/11 02:00:44;;;;;;;;;;;;;;;20.41;100.00;100651.56;5140228;23;19917;-80
2022/09/11 02:03:14;;;;;;;;;;;;;;;20.31;100.00;100653.19;5029251;28;19921;-83
2022/09/11 02:05:44;;;;;;;;;;;;;;;20.31;100.00;100649.69;5028081;28;19925;-83
2022/09/11 02:08:15;;;;;;;;;;;;;;;20.29;100.00;100652.66;5027680;28;20265;-84
2022/09/11 02:10:44;;;;;;;;;;;;;;;20.17;100.00;100654.81;5019361;28;19925;-83
2022/09/11 02:13:14;;;;;;;;;;;;;;;20.19;100.00;100666.16;5020401;28;19925;-84
2022/09/11 02:15:43;;;;;;;;;;;;;;;20.08;100.00;100656.44;5026887;28;19999;-83
2022/09/11 02:18:16;;;;;;;;;;;;;;;19.99;100.00;100656.19;5026930;28;19932;-78
2022/09/11 02:20:44;;;;;;;;;;;;;;;20.13;100.00;100651.06;5019985;28;19921;-82
2022/09/11 02:23:10;;;;;;;;;;;;;;;20.13;100.00;100653.75;5025066;28;19921;-79
2022/09/11 02:25:38;;;;;;;;;;;;;;;19.97;100.00;100646.75;5019387;28;19952;-79
2022/09/11 02:28:05;;;;;;;;;;;;;;;19.92;100.00;100636.78;5028449;28;19921;-84
2022/09/11 02:30:33;;;;;;;;;;;;;;;19.98;100.00;100640.28;5033757;28;19925;-84
2022/09/11 02:33:00;;;;;;;;;;;;;;;19.94;100.00;100644.59;5029911;28;20003;-83
2022/09/11 02:35:32;;;;;;;;;;;;;;;19.90;100.00;100642.44;5025707;28;19922;-80
2022/09/11 02:38:06;;;;;;;;;;;;;;;19.91;100.00;100651.34;5024247;28;19922;-84
2022/09/11 02:40:42;;;;;;;;;;;;;;;19.87;100.00;100656.44;5022860;28;19921;-80
2022/09/11 02:43:15;;;;;;;;;;;;;;;19.73;100.00;100659.94;5030148;28;20023;-83
2022/09/11 02:45:47;;;;;;;;;;;;;;;19.75;100.00;100660.47;5027801;28;20262;-78
2022/09/11 02:48:28;;;;;;;;;;;;;;;19.76;100.00;100654.84;5023245;28;20362;-83
2022/09/11 02:50:59;;;;;;;;;;;;;;;19.70;100.00;100657.78;5026888;28;20349;-79
2022/09/11 02:53:29;;;;;;;;;;;;;;;19.59;100.00;100649.66;5027175;28;19991;-79
2022/09/11 02:55:59;;;;;;;;;;;;;;;19.91;100.00;100651.34;5033607;28;19921;-79
2022/09/11 02:58:28;;;;;;;;;;;;;;;20.29;100.00;100641.06;5024878;28;20346;-84
2022/09/11 03:00:58;;;;;;;;;;;;;;;19.93;100.00;100653.75;5023557;28;20320;-83
2022/09/11 03:03:25;;;;;;;;;;;;;;;19.98;100.00;100649.19;5028223;28;20403;-83
2022/09/11 03:05:52;;;;;;;;;;;;;;;20.16;100.00;100645.13;5033880;28;19921;-81
2022/09/11 03:08:19;;;;;;;;;;;;;;;20.54;100.00;100654.50;5027991;28;20332;-78
2022/09/11 03:10:46;;;;;;;;;;;;;;;20.24;100.00;100649.97;5025165;28;19947;-78
2022/09/11 03:13:13;;;;;;;;;;;;;;;20.28;100.00;100648.34;5027623;28;19921;-78
2022/09/11 03:15:42;;;;;;;;;;;;;;;20.28;100.00;100642.16;5025909;28;19925;-81
2022/09/11 03:18:10;;;;;;;;;;;;;;;19.98;100.00;100651.88;5025858;28;19921;-78
2022/09/11 03:20:37;;;;;;;;;;;;;;;20.21;100.00;100644.28;5022042;28;20449;-81
2022/09/11 03:23:08;;;;;;;;;;;;;;;20.28;100.00;100655.63;5024679;28;19939;-81
2022/09/11 03:25:34;;;;;;;;;;;;;;;20.25;100.00;100645.38;5022314;28;19921;-78
2022/09/11 03:28:03;;;;;;;;;;;;;;;20.18;100.00;100652.94;5023859;28;19933;-78
2022/09/11 03:30:30;;;;;;;;;;;;;;;20.29;100.00;100654.53;5029893;28;20019;-81
2022/09/11 03:32:57;;;;;;;;;;;;;;;20.06;100.00;100656.72;5025902;28;19921;-79
2022/09/11 03:35:25;;;;;;;;;;;;;;;20.60;100.00;100649.91;5020860;28;20339;-78
2022/09/11 03:37:54;;;;;;;;;;;;;;;21.00;100.00;100648.16;5030088;28;20002;-82
2022/09/11 03:40:21;;;;;;;;;;;;;;;20.66;100.00;100658.81;5025820;28;19936;-82
2022/09/11 03:42:48;;;;;;;;;;;;;;;20.30;100.00;100656.16;5027095;28;19991;-83
2022/09/11 03:45:15;;;;;;;;;;;;;;;20.17;100.00;100662.09;5027966;28;19979;-78
2022/09/11 03:47:41;;;;;;;;;;;;;;;20.44;100.00;100659.09;5031117;28;19977;-83
2022/09/11 03:50:09;;;;;;;;;;;;;;;20.95;100.00;100653.59;5026811;28;20281;-83
2022/09/11 03:52:37;;;;;;;;;;;;;;;20.48;100.00;100669.06;5028063;28;19924;-78
2022/09/11 03:55:05;;;;;;;;;;;;;;;20.22;100.00;100671.00;5024232;28;19921;-81
2022/09/11 03:57:32;;;;;;;;;;;;;;;20.03;100.00;100667.22;5028258;28;19921;-83
2022/09/11 04:00:00;;;;;;;;;;;;;;;20.58;100.00;100661.00;5026928;28;19921;-83
2022/09/11 04:02:27;;;;;;;;;;;;;;;20.28;100.00;100674.50;5026251;28;19983;-82
2022/09/11 04:04:53;;;;;;;;;;;;;;;20.28;100.00;100672.63;5021045;28;20419;-78
2022/09/11 04:07:21;;;;;;;;;;;;;;;20.13;100.00;100678.03;5030957;28;19925;-82
2022/09/11 04:09:49;;;;;;;;;;;;;;;20.12;100.00;100673.69;5029707;28;19921;-78
2022/09/11 04:12:16;;;;;;;;;;;;;;;19.86;100.00;100672.91;5023699;28;19926;-78
2022/09/11 04:14:42;;;;;;;;;;;;;;;20.35;100.00;100681.22;5026692;28;19928;-78
2022/09/11 04:17:09;;;;;;;;;;;;;;;20.13;100.00;100672.63;5028090;28;19987;-78
2022/09/11 04:19:35;;;;;;;;;;;;;;;20.75;100.00;100667.94;5034617;28;19928;-80
2022/09/11 04:22:02;;;;;;;;;;;;;;;20.25;100.00;100681.25;5022332;28;19979;-78
2022/09/11 04:24:29;;;;;;;;;;;;;;;20.36;100.00;100682.88;5021819;28;19921;-77
2022/09/11 04:26:59;;;;;;;;;;;;;;;20.94;100.00;100679.78;5018784;28;19980;-77
2022/09/11 04:29:25;;;;;;;;;;;;;;;20.02;100.00;100679.91;5024551;28;19925;-78
2022/09/11 04:31:52;;;;;;;;;;;;;;;20.45;100.00;100683.09;5025893;28;20059;-84
2022/09/11 04:34:20;;;;;;;;;;;;;;;20.62;100.00;100684.72;5025103;28;19925;-77
2022/09/11 04:36:46;;;;;;;;;;;;;;;20.33;100.00;100677.19;5022129;28;19921;-83
2022/09/11 04:39:13;;;;;;;;;;;;;;;20.35;100.00;100670.44;5023030;28;19921;-77
2022/09/11 04:41:40;;;;;;;;;;;;;;;20.24;100.00;100679.63;5024942;28;19929;-85
2022/09/11 04:44:08;;;;;;;;;;;;;;;20.31;100.00;100680.16;5020207;28;20366;-82
2022/09/11 04:46:34;;;;;;;;;;;;;;;20.33;100.00;100680.72;5021291;28;20344;-82
2022/09/11 04:49:01;;;;;;;;;;;;;;;20.21;100.00;100687.44;5023596;28;19925;-77
2022/09/11 04:51:29;;;;;;;;;;;;;;;20.62;100.00;100677.44;5022980;28;20341;-82
2022/09/11 04:53:57;;;;;;;;;;;;;;;20.92;100.00;100683.81;5022878;28;19922;-81
2022/09/11 04:56:24;;;;;;;;;;;;;;;20.45;100.00;100685.00;5022155;28;20000;-83
2022/09/11 04:58:53;;;;;;;;;;;;;;;20.70;100.00;100679.59;5019755;28;19925;-82
2022/09/11 05:01:22;;;;;;;;;;;;;;;20.52;100.00;100689.06;5024668;28;20047;-82
2022/09/11 05:03:48;;;;;;;;;;;;;;;20.73;100.00;100679.03;5027132;28;19920;-83
2022/09/11 05:06:15;;;;;;;;;;;;;;;20.87;100.00;100684.63;5020033;28;20354;-83
2022/09/11 05:08:42;;;;;;;;;;;;;;;20.51;100.00;100684.69;5014128;28;19921;-79
2022/09/11 05:11:11;;;;;;;;;;;;;;;20.74;100.00;100680.63;5019616;28;19925;-83
2022/09/11 05:13:37;;;;;;;;;;;;;;;21.37;100.00;100684.75;5027631;28;19920;-80
2022/09/11 05:16:04;;;;;;;;;;;;;;;21.17;100.00;100688.31;5017409;28;19979;-83
2022/09/11 05:18:32;;;;;;;;;;;;;;;20.83;100.00;100688.97;5025270;28;19994;-84
2022/09/11 05:21:00;;;;;;;;;;;;;;;21.15;100.00;100685.06;5028548;28;19983;-81
2022/09/11 05:23:27;;;;;;;;;;;;;;;21.70;100.00;100678.59;5022376;28;20414;-79
2022/09/11 05:25:56;;;;;;;;;;;;;;;21.18;100.00;100688.03;5019554;28;19921;-82
2022/09/11 05:28:23;;;;;;;;;;;;;;;21.79;100.00;100689.59;5024919;28;20396;-82
2022/09/11 05:30:49;;;;;;;;;;;;;;;21.22;100.00;100688.28;5021637;28;19929;-80
2022/09/11 05:33:16;;;;;;;;;;;;;;;21.05;100.00;100702.13;5022252;28;19921;-79
2022/09/11 05:35:45;;;;;;;;;;;;;;;21.08;100.00;100698.06;5027848;28;19987;-82
2022/09/11 05:38:12;;;;;;;;;;;;;;;21.59;100.00;100690.53;5021022;28;19967;-79
2022/09/11 05:40:43;;;;;;;;;;;;;;;21.16;100.00;100692.91;5027706;28;20428;-79
2022/09/11 05:43:09;;;;;;;;;;;;;;;21.28;100.00;100696.09;5014871;28;19921;-78
2022/09/11 05:45:36;;;;;;;;;;;;;;;21.30;100.00;100703.91;5022163;28;19983;-77
2022/09/11 05:48:03;;;;;;;;;;;;;;;21.19;100.00;100700.47;5024283;28;19932;-78
2022/09/11 05:50:30;;;;;;;;;;;;;;;21.01;100.00;100692.97;5026722;28;19924;-78
2022/09/11 05:52:59;;;;;;;;;;;;;;;21.16;100.00;100702.91;5026482;28;19960;-79
2022/09/11 05:55:26;;;;;;;;;;;;;;;21.43;100.00;100703.34;5026848;28;20596;-82
2022/09/11 05:57:53;;;;;;;;;;;;;;;21.00;100.00;100705.66;5028139;28;19921;-81
2022/09/11 06:00:20;;;;;;;;;;;;;;;21.89;100.00;100702.25;5032587;28;20423;-81
2022/09/11 06:02:47;;;;;;;;;;;;;;;23.58;100.00;100697.75;5031157;28;19956;-78
2022/09/11 06:05:14;;;;;;;;;;;;;;;23.55;100.00;100688.31;5030332;28;19921;-79
2022/09/11 06:07:41;;;;;;;;;;;;;;;22.32;100.00;100691.63;5030374;28;20479;-83
2022/09/11 06:10:09;;;;;;;;;;;;;;;22.58;100.00;100689.50;5023968;28;19922;-78
2022/09/11 06:12:36;;;;;;;;;;;;;;;21.85;100.00;100685.78;5027139;28;20412;-81
2022/09/11 06:15:02;;;;;;;;;;;;;;;21.90;100.00;100683.00;5025399;28;19929;-78
2022/09/11 06:17:28;;;;;;;;;;;;;;;21.65;100.00;100688.63;5028921;28;19921;-79
2022/09/11 06:19:55;;;;;;;;;;;;;;;22.07;100.00;100689.94;5027696;28;20340;-82
2022/09/11 06:22:22;;;;;;;;;;;;;;;22.68;100.00;100681.25;5027767;28;19925;-79
2022/09/11 06:24:48;;;;;;;;;;;;;;;22.41;100.00;100682.59;5019527;28;19953;-83
2022/09/11 06:27:16;;;;;;;;;;;;;;;22.74;100.00;100682.81;5027329;28;19965;-82
2022/09/11 06:29:46;;;;;;;;;;;;;;;22.60;100.00;100690.81;5030067;28;19921;-82
2022/09/11 06:32:12;;;;;;;;;;;;;;;22.41;100.00;100698.84;5025745;28;19925;-79
2022/09/11 06:34:39;;;;;;;;;;;;;;;22.66;100.00;100683.44;5022784;28;19987;-79
2022/09/11 06:37:05;;;;;;;;;;;;;;;22.00;100.00;100678.63;5030938;28;19923;-82
2022/09/11 06:39:33;;;;;;;;;;;;;;;23.37;100.00;100680.97;5029165;28;19929;-83
2022/09/11 06:42:01;;;;;;;;;;;;;;;23.07;100.00;100672.16;5027207;28;19921;-83
2022/09/11 06:44:29;;;;;;;;;;;;;;;22.84;100.00;100677.28;5019342;28;19979;-79
2022/09/11 06:46:56;;;;;;;;;;;;;;;23.25;100.00;100682.22;5025632;28;19932;-81
2022/09/11 06:49:22;;;;;;;;;;;;;;;22.51;100.00;100678.19;5025444;28;19921;-77
2022/09/11 06:51:51;;;;;;;;;;;;;;;22.99;100.00;100679.00;5026185;28;20416;-80
2022/09/11 06:54:17;;;;;;;;;;;;;;;23.34;100.00;100678.84;5024900;28;20012;-81
2022/09/11 06:56:44;;;;;;;;;;;;;;;23.82;100.00;100684.94;5027322;28;19987;-81
2022/09/11 06:59:10;;;;;;;;;;;;;;;23.76;100.00;100684.22;5022512;28;19921;-80
2022/09/11 07:01:38;;;;;;;;;;;;;;;23.65;100.00;100690.84;5025028;28;19983;-81
2022/09/11 07:04:05;;;;;;;;;;;;;;;23.65;100.00;100692.78;5029628;28;19932;-77
2022/09/11 07:06:33;;;;;;;;;;;;;;;23.91;100.00;100694.03;5025215;28;19933;-81
2022/09/11 07:09:01;;;;;;;;;;;;;;;23.86;100.00;100693.28;5024083;28;19932;-84
2022/09/11 07:11:28;;;;;;;;;;;;;;;23.40;100.00;100689.31;5024070;28;20328;-78
2022/09/11 07:13:54;;;;;;;;;;;;;;;23.22;100.00;100684.69;5020607;28;19921;-77
2022/09/11 07:16:21;;;;;;;;;;;;;;;23.31;100.00;100682.94;5027195;28;20345;-78
2022/09/11 07:18:49;;;;;;;;;;;;;;;23.76;100.00;100686.94;5024670;28;19939;-77
2022/09/11 07:21:16;;;;;;;;;;;;;;;23.57;100.00;100690.72;5028951;28;20436;-81
2022/09/11 07:23:46;;;;;;;;;;;;;;;23.76;100.00;100700.50;5026656;28;19925;-80
2022/09/11 07:26:13;;;;;;;;;;;;;;;22.97;100.00;100696.69;5025722;28;20317;-79
2022/09/11 07:28:40;;;;;;;;;;;;;;;23.16;100.00;100702.91;5030461;28;19925;-78
2022/09/11 07:31:10;;;;;;;;;;;;;;;23.48;100.00;100695.97;5022510;28;19928;-83
2022/09/11 07:33:37;;;;;;;;;;;;;;;23.40;100.00;100700.16;5029756;28;19988;-80
2022/09/11 07:36:10;;;;;;;;;;;;;;;23.23;100.00;100695.22;5020552;28;20025;-80
2022/09/11 07:38:40;;;;;;;;;;;;;;;23.74;100.00;100704.59;5031874;28;19921;-79
2022/09/11 07:41:07;;;;;;;;;;;;;;;24.14;100.00;100710.47;5027349;28;20254;-81
2022/09/11 07:43:35;;;;;;;;;;;;;;;24.45;100.00;100697.22;5030628;28;20357;-78
2022/09/11 07:46:03;;;;;;;;;;;;;;;24.00;100.00;100705.81;5022331;28;19927;-78
2022/09/11 07:48:30;;;;;;;;;;;;;;;24.23;100.00;100692.41;5020701;28;19932;-78
2022/09/11 07:50:58;;;;;;;;;;;;;;;24.24;100.00;100702.16;5025954;28;19928;-82
2022/09/11 07:53:27;;;;;;;;;;;;;;;23.92;100.00;100698.34;5026569;28;19925;-81
2022/09/11 07:55:54;;;;;;;;;;;;;;;24.11;100.00;100698.28;5028159;28;20340;-82
2022/09/11 07:58:23;;;;;;;;;;;;;;;24.62;100.00;100700.13;5029641;28;19920;-78
2022/09/11 08:00:57;;;;;;;;;;;;;;;24.78;100.00;100703.38;5027747;28;19921;-78
2022/09/11 08:03:23;;;;;;;;;;;;;;;24.60;100.00;100699.66;5021919;28;19925;-79
2022/09/11 08:05:50;;;;;;;;;;;;;;;24.47;100.00;100702.34;5029465;28;19925;-78
2022/09/11 08:08:16;;;;;;;;;;;;;;;24.63;100.00;100698.22;5026722;28;19925;-78
2022/09/11 08:10:45;;;;;;;;;;;;;;;24.20;100.00;100703.84;5028737;28;19983;-81
2022/09/11 08:13:11;;;;;;;;;;;;;;;24.91;100.00;100707.19;5024253;28;19922;-81
2022/09/11 08:15:45;;;;;;;;;;;;;;;25.53;100.00;100695.84;5022444;28;19987;-82
2022/09/11 08:18:19;;;;;;;;;;;;;;;25.24;100.00;100693.53;5026457;28;19925;-78
2022/09/11 08:20:49;;;;;;;;;;;;;;;25.59;100.00;100700.06;5016916;28;20350;-81
2022/09/11 08:23:22;;;;;;;;;;;;;;;25.32;100.00;100698.22;5017560;28;19965;-78
2022/09/11 08:26:08;;;;;;;;;;;;;;;25.47;100.00;100688.91;5025626;28;20017;-82
2022/09/11 08:28:35;;;;;;;;;;;;;;;25.09;100.00;100697.34;5021435;28;19928;-81
2022/09/11 08:31:02;;;;;;;;;;;;;;;24.88;100.00;100692.31;5028066;28;20368;-81
2022/09/11 08:33:29;;;;;;;;;;;;;;;25.49;100.00;100675.84;5026802;28;19998;-82
2022/09/11 08:35:58;;;;;;;;;;;;;;;25.83;100.00;100691.63;5023140;28;19990;-78
2022/09/11 08:38:27;;;;;;;;;;;;;;;24.91;100.00;100672.69;5027209;28;20352;-78
2022/09/11 08:41:14;;;;;;;;;;;;;;;25.63;100.00;100660.28;5024593;28;19925;-85
2022/09/11 08:43:49;;;;;;;;;;;;;;;26.13;100.00;100656.63;5029883;28;19933;-78
2022/09/11 08:46:17;;;;;;;;;;;;;;;26.51;100.00;100670.63;5026653;28;19972;-81
2022/09/11 08:48:46;;;;;;;;;;;;;;;26.44;100.00;100659.31;5027410;28;19929;-77
2022/09/11 08:51:16;;;;;;;;;;;;;;;26.28;100.00;100661.66;5022998;28;19922;-82
2022/09/11 08:53:46;;;;;;;;;;;;;;;26.45;100.00;100660.97;5029130;28;19920;-81
2022/09/11 08:56:23;;;;;;;;;;;;;;;26.20;100.00;100660.53;5027625;28;20484;-81
2022/09/11 08:59:02;;;;;;;;;;;;;;;26.39;100.00;100646.69;5026506;28;20002;-78
2022/09/11 09:01:35;;;;;;;;;;;;;;;26.03;100.00;100649.53;5028344;28;19933;-80
2022/09/11 09:04:11;;;;;;;;;;;;;;;26.59;100.00;100655.41;5027909;28;19926;-84
2022/09/11 09:06:47;;;;;;;;;;;;;;;26.52;100.00;100649.63;5024777;28;19929;-78
2022/09/11 09:09:19;;;;;;;;;;;;;;;26.66;100.00;100647.59;5029564;28;19994;-82
2022/09/11 09:11:54;;;;;;;;;;;;;;;26.69;100.00;100644.25;5028747;28;19921;-79
2022/09/11 09:14:37;;;;;;;;;;;;;;;26.21;100.00;100643.06;5028803;28;20524;-82
2022/09/11 09:17:05;;;;;;;;;;;;;;;26.33;98.81;100636.25;5027760;28;19975;-77
2022/09/11 09:19:34;;;;;;;;;;;;;;;26.70;100.00;100629.50;5027615;28;19952;-82
2022/09/11 09:22:10;;;;;;;;;;;;;;;26.84;100.00;100630.19;5024001;28;19932;-83
2022/09/11 09:24:42;;;;;;;;;;;;;;;26.86;90.51;100627.94;5022734;28;19971;-82
2022/09/11 09:27:13;;;;;;;;;;;;;;;26.82;100.00;100618.00;5028648;28;20038;-83
2022/09/11 09:29:44;;;;;;;;;;;;;;;26.33;88.52;100630.81;5027853;28;19921;-79
2022/09/11 09:32:14;;;;;;;;;;;;;;;26.92;100.00;100628.59;5028330;28;19932;-78
2022/09/11 09:34:47;;;;;;;;;;;;;;;26.40;97.90;100631.94;5031206;28;19921;-81
2022/09/11 09:37:16;;;;;;;;;;;;;;;26.58;100.00;100627.38;5032136;28;19979;-82
2022/09/11 09:39:43;;;;;;;;;;;;;;;26.48;97.12;100620.28;5026186;28;19928;-81
2022/09/11 09:42:18;;;;;;;;;;;;;;;28.33;85.39;100626.25;5031438;28;19921;-78
2022/09/11 09:44:53;;;;;;;;;;;;;;;27.71;86.89;100627.50;5017583;28;20360;-78
2022/09/11 09:47:20;;;;;;;;;;;;;;;28.31;82.67;100617.56;5029748;28;19929;-78
2022/09/11 09:49:46;;;;;;;;;;;;;;;27.20;96.46;100615.50;5029445;28;20336;-82
2022/09/11 09:52:18;;;;;;;;;;;;;;;27.82;76.63;100617.09;5030059;28;20346;-80
2022/09/11 09:54:52;;;;;;;;;;;;;;;27.54;78.32;100614.69;5036012;28;20007;-78
2022/09/11 09:57:24;;;;;;;;;;;;;;;27.36;76.45;100619.38;5030683;28;19921;-83
2022/09/11 09:59:53;;;;;;;;;;;;;;;27.19;87.26;100616.63;5030587;28;19932;-82
2022/09/11 10:02:40;;;;;;;;;;;;;;;26.79;79.44;100615.91;5029520;28;20324;-82
2022/09/11 10:05:17;;;;;;;;;;;;;;;27.77;88.93;100601.66;5021585;28;19929;-82
2022/09/11 10:07:48;;;;;;;;;;;;;;;27.08;70.53;100598.94;5026362;28;19921;-79
2022/09/11 10:10:21;;;;;;;;;;;;;;;27.18;96.76;100595.94;5021651;28;19925;-79
2022/09/11 10:12:49;;;;;;;;;;;;;;;27.16;90.76;100592.72;5019242;28;20013;-82
2022/09/11 10:15:18;;;;;;;;;;;;;;;27.49;94.28;100590.31;5033025;28;20427;-79
2022/09/11 10:17:49;;;;;;;;;;;;;;;26.76;75.88;100600.19;5034613;28;19935;-78
2022/09/11 10:20:28;;;;;;;;;;;;;;;26.92;88.57;100585.78;5025028;28;20329;-82
2022/09/11 10:22:55;;;;;;;;;;;;;;;28.31;70.73;100587.53;5016971;28;20012;-78
2022/09/11 10:25:25;;;;;;;;;;;;;;;27.97;77.62;100593.94;5028274;28;19986;-83
2022/09/11 10:28:08;;;;;;;;;;;;;;;28.04;80.18;100591.50;5028364;28;20243;-83
2022/09/11 10:30:36;;;;;;;;;;;;;;;28.29;68.49;100592.50;5027915;28;19925;-79
2022/09/11 10:33:05;;;;;;;;;;;;;;;29.90;63.82;100580.22;5028852;28;19921;-83
2022/09/11 10:35:34;;;;;;;;;;;;;;;30.41;63.59;100581.88;5029144;28;19929;-83
2022/09/11 10:38:06;;;;;;;;;;;;;;;28.39;87.17;100583.97;5032526;28;19925;-77
2022/09/11 10:40:33;;;;;;;;;;;;;;;28.43;72.01;100586.88;5019011;28;19921;-77
2022/09/11 10:43:01;;;;;;;;;;;;;;;28.48;67.11;100584.75;5027867;28;19979;-82
2022/09/11 10:45:32;;;;;;;;;;;;;;;27.98;69.69;100585.41;5027355;28;19921;-83
2022/09/11 10:48:13;;;;;;;;;;;;;;;29.02;62.98;100577.81;5024043;28;20388;-82
2022/09/11 10:50:41;;;;;;;;;;;;;;;28.94;62.58;100566.59;5029278;28;19932;-78
2022/09/11 10:53:17;;;;;;;;;;;;;;;30.00;64.78;100570.78;5021070;28;19929;-81
2022/09/11 10:55:50;;;;;;;;;;;;;;;29.22;61.51;100577.03;5019711;28;19972;-82
2022/09/11 10:58:22;;;;;;;;;;;;;;;28.44;67.48;100581.09;5025865;28;19933;-82
2022/09/11 11:00:51;;;;;;;;;;;;;;;30.07;59.98;100565.53;5018472;28;20501;-81
2022/09/11 11:03:21;;;;;;;;;;;;;;;28.81;59.77;100575.88;5031503;28;19928;-83
2022/09/11 11:06:03;;;;;;;;;;;;;;;28.36;66.70;100568.25;5023940;28;19927;-78
2022/09/11 11:08:45;;;;;;;;;;;;;;;29.61;56.42;100566.69;5028087;28;20328;-81
2022/09/11 11:11:23;;;;;;;;;;;;;;;28.97;58.55;100576.06;5022057;28;19921;-81
2022/09/11 11:14:03;;;;;;;;;;;;;;;29.75;55.27;100569.94;5025005;28;20463;-82
2022/09/11 11:16:39;;;;;;;;;;;;;;;28.37;80.50;100575.28;5020950;28;19921;-78
2022/09/11 11:19:17;;;;;;;;;;;;;;;29.45;52.38;100552.84;5015981;28;19925;-78
2022/09/11 11:21:51;;;;;;;;;;;;;;;28.57;58.51;100559.31;5024543;28;19994;-81
2022/09/11 11:24:34;;;;;;;;;;;;;;;29.47;60.04;100568.91;5030777;28;19922;-78
2022/09/11 11:27:09;;;;;;;;;;;;;;;29.77;56.48;100559.44;5025744;28;20309;-81
2022/09/11 11:29:59;;;;;;;;;;;;;;;28.43;69.02;100573.22;5027113;28;20031;-79
2022/09/11 11:32:38;;;;;;;;;;;;;;;29.16;59.52;100561.94;5026570;28;20020;-80
2022/09/11 11:35:13;;;;;;;;;;;;;;;28.61;55.65;100565.72;5025885;28;20324;-80
2022/09/11 11:37:41;;;;;;;;;;;;;;;29.03;69.50;100555.63;5029124;28;19920;-77
2022/09/11 11:40:16;;;;;;;;;;;;;;;29.02;53.56;100564.16;5020636;28;19921;-80
2022/09/11 11:42:45;;;;;;;;;;;;;;;29.34;61.09;100552.44;5024804;28;19928;-79
2022/09/11 11:45:21;;;;;;;;;;;;;;;29.22;70.14;100552.41;5024562;28;19927;-83
2022/09/11 11:47:53;;;;;;;;;;;;;;;30.55;48.05;100550.25;5025226;28;19978;-82
2022/09/11 11:50:30;;;;;;;;;;;;;;;28.97;51.37;100554.22;5029071;28;19921;-83
2022/09/11 11:53:06;;;;;;;;;;;;;;;28.95;58.45;100546.31;5021264;28;19972;-79
2022/09/11 11:55:40;;;;;;;;;;;;;;;30.19;53.34;100542.81;5027602;28;19929;-78
2022/09/11 11:58:13;;;;;;;;;;;;;;;29.50;50.72;100541.66;5017869;28;19928;-82
2022/09/11 12:00:44;;;;;;;;;;;;;;;29.82;54.76;100542.81;5025692;28;20383;-82
2022/09/11 12:03:20;;;;;;;;;;;;;;;28.60;55.51;100537.59;5026407;28;20270;-82
2022/09/11 12:05:47;;;;;;;;;;;;;;;28.94;70.38;100536.53;5030291;28;19928;-79
2022/09/11 12:08:15;;;;;;;;;;;;;;;28.95;69.87;100549.06;5027118;28;19948;-81
2022/09/11 12:10:44;;;;;;;;;;;;;;;29.18;50.85;100529.63;5021037;28;19921;-83
2022/09/11 12:13:20;;;;;;;;;;;;;;;28.86;59.33;100536.59;5021899;28;19994;-78
2022/09/11 12:16:08;;;;;;;;;;;;;;;29.68;54.38;100542.31;5024638;28;20015;-85
2022/09/11 12:18:44;;;;;;;;;;;;;;;29.09;54.07;100537.09;5024019;28;19925;-79
2022/09/11 12:21:30;;;;;;;;;;;;;;;29.58;49.58;100532.56;5027706;28;20266;-82
2022/09/11 12:24:11;;;;;;;;;;;;;;;28.50;46.06;100532.50;5024594;28;20392;-78
2022/09/11 12:26:38;;;;;;;;;;;;;;;28.73;64.04;100525.59;5028063;28;19991;-81
2022/09/11 12:29:25;;;;;;;;;;;;;;;28.48;49.75;100521.94;5023628;28;19928;-77
2022/09/11 12:32:10;;;;;;;;;;;;;;;29.02;49.21;100515.78;5021860;28;20361;-81
2022/09/11 12:34:57;;;;;;;;;;;;;;;29.46;44.37;100516.13;5027008;28;19924;-77
2022/09/11 12:37:27;;;;;;;;;;;;;;;29.32;47.47;100518.38;5029840;28;20358;-77
2022/09/11 12:40:03;;;;;;;;;;;;;;;29.28;43.83;100520.19;5026336;28;19932;-77
2022/09/11 12:42:47;;;;;;;;;;;;;;;29.34;41.02;100521.56;5026734;28;19921;-78
2022/09/11 12:45:30;;;;;;;;;;;;;;;28.97;45.08;100514.00;5026193;28;19925;-78
2022/09/11 12:48:03;;;;;;;;;;;;;;;28.49;42.54;100520.00;5028908;28;19925;-78